sensor_id;sensor_type;location;lat;lon;timestamp;pressure;altitude;pressure_sealevel;temperature;humidity
20909;BME280;10614;53.198;6.570;2023-03-18T00:01:58;100681.25;;;11.95;95.74
20909;BME280;10614;53.198;6.570;2023-03-18T00:04:00;100677.75;;;11.95;95.79
20909;BME280;10614;53.198;6.570;2023-03-18T00:06:02;100676.97;;;11.93;95.68
20909;BME280;10614;53.198;6.570;2023-03-18T00:08:04;100680.56;;;11.92;95.79
20909;BME280;10614;53.198;6.570;2023-03-18T00:10:06;100683.25;;;11.90;94.91
20909;BME280;10614;53.198;6.570;2023-03-18T00:12:10;100688.59;;;11.89;95.07
20909;BME280;10614;53.198;6.570;2023-03-18T00:14:13;100687.69;;;11.90;95.03
20909;BME280;10614;53.198;6.570;2023-03-18T00:16:15;100693.81;;;11.90;95.69
20909;BME280;10614;53.198;6.570;2023-03-18T00:18:16;100688.53;;;11.90;95.75
20909;BME280;10614;53.198;6.570;2023-03-18T00:20:18;100682.47;;;11.88;95.73
20909;BME280;10614;53.198;6.570;2023-03-18T00:22:28;100687.78;;;11.87;95.97
20909;BME280;10614;53.198;6.570;2023-03-18T00:24:29;100687.78;;;11.87;95.19
20909;BME280;10614;53.198;6.570;2023-03-18T00:26:31;100688.72;;;11.86;95.81
20909;BME280;10614;53.198;6.570;2023-03-18T00:28:34;100692.19;;;11.86;94.89
20909;BME280;10614;53.198;6.570;2023-03-18T00:30:38;100694.91;;;11.84;96.09
20909;BME280;10614;53.198;6.570;2023-03-18T00:32:41;100695.84;;;11.83;96.36
20909;BME280;10614;53.198;6.570;2023-03-18T00:34:45;100693.19;;;11.83;96.23
20909;BME280;10614;53.198;6.570;2023-03-18T00:36:47;100692.34;;;11.83;96.28
20909;BME280;10614;53.198;6.570;2023-03-18T00:38:56;100695.91;;;11.82;95.72
20909;BME280;10614;53.198;6.570;2023-03-18T00:41:02;100690.72;;;11.80;95.84
20909;BME280;10614;53.198;6.570;2023-03-18T00:43:10;100700.41;;;11.80;95.82
20909;BME280;10614;53.198;6.570;2023-03-18T00:45:16;100703.19;;;11.77;96.88
20909;BME280;10614;53.198;6.570;2023-03-18T00:47:18;100700.63;;;11.75;96.96
20909;BME280;10614;53.198;6.570;2023-03-18T00:49:20;100700.63;;;11.75;96.03
20909;BME280;10614;53.198;6.570;2023-03-18T00:51:22;100698.06;;;11.74;97.19
20909;BME280;10614;53.198;6.570;2023-03-18T00:53:25;100704.34;;;11.71;97.45
20909;BME280;10614;53.198;6.570;2023-03-18T00:55:26;100701.75;;;11.70;96.46
20909;BME280;10614;53.198;6.570;2023-03-18T00:57:27;100693.22;;;11.65;97.51
20909;BME280;10614;53.198;6.570;2023-03-18T00:59:29;100702.91;;;11.64;98.25
20909;BME280;10614;53.198;6.570;2023-03-18T01:01:33;100696.84;;;11.62;97.61
20909;BME280;10614;53.198;6.570;2023-03-18T01:03:36;100696.13;;;11.58;98.00
20909;BME280;10614;53.198;6.570;2023-03-18T01:05:38;100697.91;;;11.58;98.05
20909;BME280;10614;53.198;6.570;2023-03-18T01:07:40;100691.78;;;11.57;98.79
20909;BME280;10614;53.198;6.570;2023-03-18T01:09:41;100692.69;;;11.56;98.58
20909;BME280;10614;53.198;6.570;2023-03-18T01:11:43;100701.56;;;11.55;98.46
20909;BME280;10614;53.198;6.570;2023-03-18T01:13:45;100701.63;;;11.54;98.30
20909;BME280;10614;53.198;6.570;2023-03-18T01:15:46;100705.25;;;11.51;99.67
20909;BME280;10614;53.198;6.570;2023-03-18T01:17:49;100704.47;;;11.49;98.78
20909;BME280;10614;53.198;6.570;2023-03-18T01:19:55;100700.19;;;11.47;98.97
20909;BME280;10614;53.198;6.570;2023-03-18T01:21:57;100702.91;;;11.45;99.83
20909;BME280;10614;53.198;6.570;2023-03-18T01:23:59;100702.19;;;11.41;100.00
20909;BME280;10614;53.198;6.570;2023-03-18T01:26:00;100696.13;;;11.39;99.58
20909;BME280;10614;53.198;6.570;2023-03-18T01:28:02;100697.06;;;11.38;100.00
20909;BME280;10614;53.198;6.570;2023-03-18T01:30:04;100702.41;;;11.37;100.00
20909;BME280;10614;53.198;6.570;2023-03-18T01:32:08;100699.81;;;11.35;100.00
20909;BME280;10614;53.198;6.570;2023-03-18T01:34:12;100700.75;;;11.34;100.00
20909;BME280;10614;53.198;6.570;2023-03-18T01:36:13;100704.31;;;11.33;100.00
20909;BME280;10614;53.198;6.570;2023-03-18T01:38:15;100700.91;;;11.31;100.00
20909;BME280;10614;53.198;6.570;2023-03-18T01:40:16;100710.66;;;11.29;100.00
20909;BME280;10614;53.198;6.570;2023-03-18T01:42:18;100709.88;;;11.27;100.00
20909;BME280;10614;53.198;6.570;2023-03-18T01:44:21;100714.34;;;11.25;100.00
20909;BME280;10614;53.198;6.570;2023-03-18T01:46:31;100707.38;;;11.24;100.00
20909;BME280;10614;53.198;6.570;2023-03-18T01:48:34;100705.75;;;11.22;100.00
20909;BME280;10614;53.198;6.570;2023-03-18T01:50:40;100713.69;;;11.20;100.00
20909;BME280;10614;53.198;6.570;2023-03-18T01:52:43;100716.38;;;11.18;100.00
20909;BME280;10614;53.198;6.570;2023-03-18T01:54:45;100706.84;;;11.16;100.00
20909;BME280;10614;53.198;6.570;2023-03-18T01:56:50;100717.38;;;11.16;100.00
20909;BME280;10614;53.198;6.570;2023-03-18T01:58:53;100713.13;;;11.13;100.00
20909;BME280;10614;53.198;6.570;2023-03-18T02:00:58;100712.41;;;11.10;100.00
20909;BME280;10614;53.198;6.570;2023-03-18T02:03:01;100715.16;;;11.07;100.00
20909;BME280;10614;53.198;6.570;2023-03-18T02:05:04;100719.53;;;11.08;100.00
20909;BME280;10614;53.198;6.570;2023-03-18T02:07:12;100716.88;;;11.08;100.00
20909;BME280;10614;53.198;6.570;2023-03-18T02:09:17;100718.72;;;11.06;100.00
20909;BME280;10614;53.198;6.570;2023-03-18T02:11:19;100721.41;;;11.04;100.00
20909;BME280;10614;53.198;6.570;2023-03-18T02:13:22;100725.84;;;11.04;100.00
20909;BME280;10614;53.198;6.570;2023-03-18T02:15:26;100729.38;;;11.03;100.00
20909;BME280;10614;53.198;6.570;2023-03-18T02:17:29;100732.94;;;11.02;100.00
20909;BME280;10614;53.198;6.570;2023-03-18T02:19:41;100737.41;;;10.99;100.00
20909;BME280;10614;53.198;6.570;2023-03-18T02:21:50;100726.09;;;10.97;100.00
20909;BME280;10614;53.198;6.570;2023-03-18T02:23:57;100736.72;;;10.96;100.00
20909;BME280;10614;53.198;6.570;2023-03-18T02:26:02;100738.41;;;10.97;100.00
20909;BME280;10614;53.198;6.570;2023-03-18T02:28:08;100732.28;;;10.96;100.00
20909;BME280;10614;53.198;6.570;2023-03-18T02:30:12;100736.78;;;10.94;100.00
20909;BME280;10614;53.198;6.570;2023-03-18T02:32:14;100736.78;;;10.94;100.00
20909;BME280;10614;53.198;6.570;2023-03-18T02:34:18;100732.44;;;10.93;100.00
20909;BME280;10614;53.198;6.570;2023-03-18T02:36:20;100737.75;;;10.92;100.00
20909;BME280;10614;53.198;6.570;2023-03-18T02:38:23;100741.25;;;10.92;100.00
20909;BME280;10614;53.198;6.570;2023-03-18T02:40:26;100735.13;;;10.92;100.00
20909;BME280;10614;53.198;6.570;2023-03-18T02:42:28;100738.59;;;10.92;100.00
20909;BME280;10614;53.198;6.570;2023-03-18T02:44:39;100742.22;;;10.90;100.00
20909;BME280;10614;53.198;6.570;2023-03-18T02:46:46;100741.50;;;10.86;100.00
20909;BME280;10614;53.198;6.570;2023-03-18T02:48:49;100741.63;;;10.83;100.00
20909;BME280;10614;53.198;6.570;2023-03-18T02:50:51;100743.47;;;10.81;100.00
20909;BME280;10614;53.198;6.570;2023-03-18T02:52:53;100748.81;;;10.80;100.00
20909;BME280;10614;53.198;6.570;2023-03-18T02:54:55;100749.81;;;10.77;100.00
20909;BME280;10614;53.198;6.570;2023-03-18T02:56:58;100758.66;;;10.74;100.00
20909;BME280;10614;53.198;6.570;2023-03-18T02:59:00;100755.31;;;10.71;100.00
20909;BME280;10614;53.198;6.570;2023-03-18T03:01:04;100757.22;;;10.67;100.00
20909;BME280;10614;53.198;6.570;2023-03-18T03:03:05;100762.63;;;10.64;100.00
20909;BME280;10614;53.198;6.570;2023-03-18T03:05:07;100761.91;;;10.61;100.00
20909;BME280;10614;53.198;6.570;2023-03-18T03:07:09;100771.63;;;10.59;100.00
20909;BME280;10614;53.198;6.570;2023-03-18T03:09:12;100768.13;;;10.58;100.00
20909;BME280;10614;53.198;6.570;2023-03-18T03:11:15;100767.28;;;10.57;100.00
20909;BME280;10614;53.198;6.570;2023-03-18T03:13:16;100761.16;;;10.57;100.00
20909;BME280;10614;53.198;6.570;2023-03-18T03:15:18;100758.72;;;10.52;100.00
20909;BME280;10614;53.198;6.570;2023-03-18T03:17:21;100764.91;;;10.51;100.00
20909;BME280;10614;53.198;6.570;2023-03-18T03:19:23;100769.38;;;10.49;100.00
20909;BME280;10614;53.198;6.570;2023-03-18T03:21:26;100765.94;;;10.47;100.00
20909;BME280;10614;53.198;6.570;2023-03-18T03:23:30;100766.94;;;10.45;100.00
20909;BME280;10614;53.198;6.570;2023-03-18T03:25:32;100768.72;;;10.44;100.00
20909;BME280;10614;53.198;6.570;2023-03-18T03:27:34;100764.34;;;10.43;100.00
20909;BME280;10614;53.198;6.570;2023-03-18T03:29:37;100762.66;;;10.42;100.00
20909;BME280;10614;53.198;6.570;2023-03-18T03:31:39;100774.03;;;10.43;100.00
20909;BME280;10614;53.198;6.570;2023-03-18T03:33:42;100778.44;;;10.42;100.00
20909;BME280;10614;53.198;6.570;2023-03-18T03:35:44;100778.44;;;10.42;100.00
20909;BME280;10614;53.198;6.570;2023-03-18T03:37:45;100781.97;;;10.41;100.00
20909;BME280;10614;53.198;6.570;2023-03-18T03:39:47;100781.97;;;10.41;100.00
20909;BME280;10614;53.198;6.570;2023-03-18T03:41:48;100777.69;;;10.39;100.00
20909;BME280;10614;53.198;6.570;2023-03-18T03:43:50;100773.41;;;10.36;100.00
20909;BME280;10614;53.198;6.570;2023-03-18T03:45:51;100783.13;;;10.34;100.00
20909;BME280;10614;53.198;6.570;2023-03-18T03:47:53;100791.16;;;10.31;100.00
20909;BME280;10614;53.198;6.570;2023-03-18T03:49:56;100789.44;;;10.30;100.00
20909;BME280;10614;53.198;6.570;2023-03-18T03:51:58;100784.19;;;10.30;100.00
20909;BME280;10614;53.198;6.570;2023-03-18T03:53:59;100794.78;;;10.28;100.00
20909;BME280;10614;53.198;6.570;2023-03-18T03:56:01;100793.91;;;10.28;100.00
20909;BME280;10614;53.198;6.570;2023-03-18T03:58:03;100806.16;;;10.27;100.00
20909;BME280;10614;53.198;6.570;2023-03-18T04:00:06;100801.88;;;10.25;100.00
20909;BME280;10614;53.198;6.570;2023-03-18T04:02:09;100808.97;;;10.23;100.00
20909;BME280;10614;53.198;6.570;2023-03-18T04:04:11;100813.44;;;10.21;100.00
20909;BME280;10614;53.198;6.570;2023-03-18T04:06:16;100815.22;;;10.20;100.00
20909;BME280;10614;53.198;6.570;2023-03-18T04:08:17;100815.31;;;10.19;100.00
20909;BME280;10614;53.198;6.570;2023-03-18T04:10:19;100813.56;;;10.18;100.00
20909;BME280;10614;53.198;6.570;2023-03-18T04:12:21;100819.75;;;10.17;100.00
20909;BME280;10614;53.198;6.570;2023-03-18T04:14:23;100823.38;;;10.14;100.00
20909;BME280;10614;53.198;6.570;2023-03-18T04:16:24;100825.19;;;10.12;100.00
20909;BME280;10614;53.198;6.570;2023-03-18T04:18:26;100822.56;;;10.12;100.00
20909;BME280;10614;53.198;6.570;2023-03-18T04:20:28;100823.47;;;10.11;100.00
20909;BME280;10614;53.198;6.570;2023-03-18T04:22:31;100822.63;;;10.10;100.00
20909;BME280;10614;53.198;6.570;2023-03-18T04:24:32;100820.97;;;10.08;100.00
20909;BME280;10614;53.198;6.570;2023-03-18T04:26:34;100822.75;;;10.07;100.00
20909;BME280;10614;53.198;6.570;2023-03-18T04:28:36;100824.56;;;10.05;100.00
20909;BME280;10614;53.198;6.570;2023-03-18T04:30:37;100827.25;;;10.04;100.00
20909;BME280;10614;53.198;6.570;2023-03-18T04:32:38;100830.81;;;10.03;100.00
20909;BME280;10614;53.198;6.570;2023-03-18T04:34:40;100823.91;;;10.00;100.00
20909;BME280;10614;53.198;6.570;2023-03-18T04:36:41;100822.34;;;9.94;100.00
20909;BME280;10614;53.198;6.570;2023-03-18T04:38:45;100825.94;;;9.92;100.00
20909;BME280;10614;53.198;6.570;2023-03-18T04:40:46;100828.66;;;9.90;100.00
20909;BME280;10614;53.198;6.570;2023-03-18T04:42:48;100825.13;;;9.90;100.00
20909;BME280;10614;53.198;6.570;2023-03-18T04:44:49;100831.31;;;9.89;100.00
20909;BME280;10614;53.198;6.570;2023-03-18T04:46:51;100836.59;;;9.89;100.00
20909;BME280;10614;53.198;6.570;2023-03-18T04:48:53;100835.78;;;9.87;100.00
20909;BME280;10614;53.198;6.570;2023-03-18T04:50:55;100830.50;;;9.87;100.00
20909;BME280;10614;53.198;6.570;2023-03-18T04:52:56;100839.25;;;9.87;100.00
20909;BME280;10614;53.198;6.570;2023-03-18T04:55:00;100842.75;;;9.88;100.00
20909;BME280;10614;53.198;6.570;2023-03-18T04:57:02;100843.66;;;9.87;100.00
20909;BME280;10614;53.198;6.570;2023-03-18T04:59:04;100842.00;;;9.84;100.00
20909;BME280;10614;53.198;6.570;2023-03-18T05:01:06;100849.91;;;9.84;100.00
20909;BME280;10614;53.198;6.570;2023-03-18T05:03:09;100857.78;;;9.84;100.00
20909;BME280;10614;53.198;6.570;2023-03-18T05:05:11;100851.69;;;9.84;100.00
20909;BME280;10614;53.198;6.570;2023-03-18T05:07:13;100847.31;;;9.83;100.00
20909;BME280;10614;53.198;6.570;2023-03-18T05:09:15;100851.72;;;9.82;100.00
20909;BME280;10614;53.198;6.570;2023-03-18T05:11:19;100851.72;;;9.82;100.00
20909;BME280;10614;53.198;6.570;2023-03-18T05:13:21;100850.88;;;9.82;100.00
20909;BME280;10614;53.198;6.570;2023-03-18T05:15:23;100856.13;;;9.82;100.00
20909;BME280;10614;53.198;6.570;2023-03-18T05:17:25;100857.03;;;9.81;100.00
20909;BME280;10614;53.198;6.570;2023-03-18T05:19:26;100860.63;;;9.78;100.00
20909;BME280;10614;53.198;6.570;2023-03-18T05:21:28;100857.16;;;9.78;100.00
20909;BME280;10614;53.198;6.570;2023-03-18T05:23:30;100857.19;;;9.76;100.00
20909;BME280;10614;53.198;6.570;2023-03-18T05:25:32;100851.09;;;9.76;100.00
20909;BME280;10614;53.198;6.570;2023-03-18T05:27:35;100861.59;;;9.76;100.00
20909;BME280;10614;53.198;6.570;2023-03-18T05:29:37;100870.41;;;9.75;100.00
20909;BME280;10614;53.198;6.570;2023-03-18T05:31:39;100864.22;;;9.76;100.00
20909;BME280;10614;53.198;6.570;2023-03-18T05:33:41;100878.28;;;9.75;100.00
20909;BME280;10614;53.198;6.570;2023-03-18T05:35:43;100864.34;;;9.72;100.00
20909;BME280;10614;53.198;6.570;2023-03-18T05:37:46;100863.50;;;9.72;100.00
20909;BME280;10614;53.198;6.570;2023-03-18T05:39:47;100870.50;;;9.71;100.00
20909;BME280;10614;53.198;6.570;2023-03-18T05:41:49;100882.78;;;9.71;100.00
20909;BME280;10614;53.198;6.570;2023-03-18T05:43:52;100879.31;;;9.70;100.00
20909;BME280;10614;53.198;6.570;2023-03-18T05:45:54;100886.34;;;9.70;100.00
20909;BME280;10614;53.198;6.570;2023-03-18T05:47:55;100893.38;;;9.69;100.00
20909;BME280;10614;53.198;6.570;2023-03-18T05:49:58;100893.38;;;9.69;100.00
20909;BME280;10614;53.198;6.570;2023-03-18T05:52:00;100891.66;;;9.68;100.00
20909;BME280;10614;53.198;6.570;2023-03-18T05:54:02;100887.25;;;9.69;100.00
20909;BME280;10614;53.198;6.570;2023-03-18T05:56:04;100891.66;;;9.68;100.00
20909;BME280;10614;53.198;6.570;2023-03-18T05:58:06;100890.03;;;9.64;100.00
20909;BME280;10614;53.198;6.570;2023-03-18T06:00:10;100902.22;;;9.67;100.00
20909;BME280;10614;53.198;6.570;2023-03-18T06:02:14;100897.88;;;9.66;100.00
20909;BME280;10614;53.198;6.570;2023-03-18T06:04:16;100897.88;;;9.66;100.00
20909;BME280;10614;53.198;6.570;2023-03-18T06:06:19;100900.53;;;9.64;100.00
20909;BME280;10614;53.198;6.570;2023-03-18T06:08:20;100905.78;;;9.64;100.00
20909;BME280;10614;53.198;6.570;2023-03-18T06:10:22;100904.94;;;9.64;100.00
20909;BME280;10614;53.198;6.570;2023-03-18T06:12:25;100909.31;;;9.65;100.00
20909;BME280;10614;53.198;6.570;2023-03-18T06:14:27;100906.69;;;9.65;100.00
20909;BME280;10614;53.198;6.570;2023-03-18T06:16:30;100919.81;;;9.65;100.00
20909;BME280;10614;53.198;6.570;2023-03-18T06:18:32;100904.94;;;9.64;100.00
20909;BME280;10614;53.198;6.570;2023-03-18T06:20:34;100907.56;;;9.64;100.00
20909;BME280;10614;53.198;6.570;2023-03-18T06:22:35;100913.69;;;9.64;100.00
20909;BME280;10614;53.198;6.570;2023-03-18T06:24:37;100919.81;;;9.65;100.00
20909;BME280;10614;53.198;6.570;2023-03-18T06:26:38;100920.72;;;9.64;100.00
20909;BME280;10614;53.198;6.570;2023-03-18T06:28:40;100924.28;;;9.63;100.00
20909;BME280;10614;53.198;6.570;2023-03-18T06:30:43;100923.34;;;9.64;100.00
20909;BME280;10614;53.198;6.570;2023-03-18T06:32:45;100921.56;;;9.64;100.00
20909;BME280;10614;53.198;6.570;2023-03-18T06:34:47;100926.78;;;9.66;100.00
20909;BME280;10614;53.198;6.570;2023-03-18T06:36:49;100929.38;;;9.67;100.00
20909;BME280;10614;53.198;6.570;2023-03-18T06:38:51;100932.84;;;9.68;100.00
20909;BME280;10614;53.198;6.570;2023-03-18T06:40:52;100930.19;;;9.69;100.00
20909;BME280;10614;53.198;6.570;2023-03-18T06:42:54;100932.81;;;9.69;100.00
20909;BME280;10614;53.198;6.570;2023-03-18T06:44:56;100933.69;;;9.68;100.00
20909;BME280;10614;53.198;6.570;2023-03-18T06:46:58;100938.91;;;9.70;100.00
20909;BME280;10614;53.198;6.570;2023-03-18T06:49:00;100938.91;;;9.70;100.00
20909;BME280;10614;53.198;6.570;2023-03-18T06:51:02;100938.06;;;9.69;100.00
20909;BME280;10614;53.198;6.570;2023-03-18T06:53:04;100937.13;;;9.70;100.00
20909;BME280;10614;53.198;6.570;2023-03-18T06:55:05;100940.63;;;9.71;100.00
20909;BME280;10614;53.198;6.570;2023-03-18T06:57:07;100936.22;;;9.71;100.00
20909;BME280;10614;53.198;6.570;2023-03-18T06:59:09;100951.03;;;9.74;100.00
20909;BME280;10614;53.198;6.570;2023-03-18T07:01:10;100952.75;;;9.75;100.00
20909;BME280;10614;53.198;6.570;2023-03-18T07:03:13;100947.53;;;9.73;100.00
20909;BME280;10614;53.198;6.570;2023-03-18T07:05:16;100947.50;;;9.75;100.00
20909;BME280;10614;53.198;6.570;2023-03-18T07:07:18;100949.19;;;9.76;100.00
20909;BME280;10614;53.198;6.570;2023-03-18T07:09:21;100962.28;;;9.78;100.00
20909;BME280;10614;53.198;6.570;2023-03-18T07:11:25;100957.88;;;9.78;100.00
20909;BME280;10614;53.198;6.570;2023-03-18T07:13:27;100961.41;;;9.79;100.00
20909;BME280;10614;53.198;6.570;2023-03-18T07:15:28;100966.66;;;9.79;100.00
20909;BME280;10614;53.198;6.570;2023-03-18T07:17:30;100964.03;;;9.79;100.00
20909;BME280;10614;53.198;6.570;2023-03-18T07:19:32;100966.53;;;9.82;100.00
20909;BME280;10614;53.198;6.570;2023-03-18T07:21:35;100967.34;;;9.84;100.00
20909;BME280;10614;53.198;6.570;2023-03-18T07:23:38;100963.78;;;9.85;100.00
20909;BME280;10614;53.198;6.570;2023-03-18T07:25:40;100964.66;;;9.85;100.00
20909;BME280;10614;53.198;6.570;2023-03-18T07:27:43;100967.28;;;9.85;100.00
20909;BME280;10614;53.198;6.570;2023-03-18T07:29:45;100972.53;;;9.85;100.00
20909;BME280;10614;53.198;6.570;2023-03-18T07:31:47;100974.28;;;9.86;100.00
20909;BME280;10614;53.198;6.570;2023-03-18T07:33:49;100984.72;;;9.88;100.00
20909;BME280;10614;53.198;6.570;2023-03-18T07:35:50;100982.88;;;9.90;100.00
20909;BME280;10614;53.198;6.570;2023-03-18T07:37:54;100974.03;;;9.92;100.00
20909;BME280;10614;53.198;6.570;2023-03-18T07:39:56;100976.63;;;9.94;100.00
20909;BME280;10614;53.198;6.570;2023-03-18T07:41:58;100980.19;;;9.93;100.00
20909;BME280;10614;53.198;6.570;2023-03-18T07:44:01;100984.31;;;10.00;100.00
20909;BME280;10614;53.198;6.570;2023-03-18T07:46:04;100985.13;;;10.02;100.00
20909;BME280;10614;53.198;6.570;2023-03-18T07:48:05;100985.03;;;10.04;100.00
20909;BME280;10614;53.198;6.570;2023-03-18T07:50:07;100985.84;;;10.06;100.00
20909;BME280;10614;53.198;6.570;2023-03-18T07:52:11;100990.13;;;10.08;100.00
20909;BME280;10614;53.198;6.570;2023-03-18T07:54:14;100995.31;;;10.11;100.00
20909;BME280;10614;53.198;6.570;2023-03-18T07:56:17;100991.63;;;10.15;100.00
20909;BME280;10614;53.198;6.570;2023-03-18T07:58:19;101000.28;;;10.19;100.00
20909;BME280;10614;53.198;6.570;2023-03-18T08:00:21;101001.94;;;10.22;100.00
20909;BME280;10614;53.198;6.570;2023-03-18T08:02:23;101000.94;;;10.26;100.00
20909;BME280;10614;53.198;6.570;2023-03-18T08:04:26;101010.53;;;10.27;100.00
20909;BME280;10614;53.198;6.570;2023-03-18T08:06:28;101008.75;;;10.29;100.00
20909;BME280;10614;53.198;6.570;2023-03-18T08:08:30;101002.50;;;10.31;100.00
20909;BME280;10614;53.198;6.570;2023-03-18T08:10:32;101008.56;;;10.33;100.00
20909;BME280;10614;53.198;6.570;2023-03-18T08:12:34;101015.50;;;10.36;100.00
20909;BME280;10614;53.198;6.570;2023-03-18T08:14:36;101012.75;;;10.39;100.00
20909;BME280;10614;53.198;6.570;2023-03-18T08:16:38;101016.19;;;10.41;100.00
20909;BME280;10614;53.198;6.570;2023-03-18T08:18:39;101018.72;;;10.44;100.00
20909;BME280;10614;53.198;6.570;2023-03-18T08:20:42;101016.09;;;10.44;100.00
20909;BME280;10614;53.198;6.570;2023-03-18T08:22:43;101010.69;;;10.47;100.00
20909;BME280;10614;53.198;6.570;2023-03-18T08:24:46;101010.66;;;10.49;100.00
20909;BME280;10614;53.198;6.570;2023-03-18T08:26:49;101021.06;;;10.52;100.00
20909;BME280;10614;53.198;6.570;2023-03-18T08:28:50;101019.25;;;10.54;100.00
20909;BME280;10614;53.198;6.570;2023-03-18T08:30:52;101018.31;;;10.55;100.00
20909;BME280;10614;53.198;6.570;2023-03-18T08:32:55;101025.22;;;10.57;100.00
20909;BME280;10614;53.198;6.570;2023-03-18T08:34:58;101026.97;;;10.59;100.00
20909;BME280;10614;53.198;6.570;2023-03-18T08:37:03;101033.94;;;10.60;100.00
20909;BME280;10614;53.198;6.570;2023-03-18T08:39:05;101025.13;;;10.61;100.00
20909;BME280;10614;53.198;6.570;2023-03-18T08:41:06;101021.56;;;10.62;100.00
20909;BME280;10614;53.198;6.570;2023-03-18T08:43:10;101024.16;;;10.63;100.00
20909;BME280;10614;53.198;6.570;2023-03-18T08:45:13;101024.03;;;10.66;100.00
20909;BME280;10614;53.198;6.570;2023-03-18T08:47:16;101024.00;;;10.68;100.00
20909;BME280;10614;53.198;6.570;2023-03-18T08:49:17;101030.97;;;10.69;100.00
20909;BME280;10614;53.198;6.570;2023-03-18T08:51:19;101029.13;;;10.71;100.00
20909;BME280;10614;53.198;6.570;2023-03-18T08:53:21;101030.78;;;10.73;100.00
20909;BME280;10614;53.198;6.570;2023-03-18T08:55:26;101026.38;;;10.74;100.00
20909;BME280;10614;53.198;6.570;2023-03-18T08:57:28;101034.28;;;10.74;100.00
20909;BME280;10614;53.198;6.570;2023-03-18T08:59:32;101035.94;;;10.76;100.00
20909;BME280;10614;53.198;6.570;2023-03-18T09:01:33;101035.94;;;10.76;100.00
20909;BME280;10614;53.198;6.570;2023-03-18T09:03:35;101028.91;;;10.77;100.00
20909;BME280;10614;53.198;6.570;2023-03-18T09:05:37;101025.34;;;10.78;100.00
20909;BME280;10614;53.198;6.570;2023-03-18T09:07:39;101023.56;;;10.78;100.00
20909;BME280;10614;53.198;6.570;2023-03-18T09:09:41;101027.00;;;10.81;100.00
20909;BME280;10614;53.198;6.570;2023-03-18T09:11:42;101019.94;;;10.81;100.00
20909;BME280;10614;53.198;6.570;2023-03-18T09:13:45;101021.69;;;10.82;100.00
20909;BME280;10614;53.198;6.570;2023-03-18T09:15:48;101018.97;;;10.84;100.00
20909;BME280;10614;53.198;6.570;2023-03-18T09:17:49;101018.94;;;10.85;100.00
20909;BME280;10614;53.198;6.570;2023-03-18T09:19:51;101024.16;;;10.87;100.00
20909;BME280;10614;53.198;6.570;2023-03-18T09:21:52;101029.34;;;10.88;100.00
20909;BME280;10614;53.198;6.570;2023-03-18T09:23:54;101036.22;;;10.92;100.00
20909;BME280;10614;53.198;6.570;2023-03-18T09:25:57;101045.75;;;10.95;100.00
20909;BME280;10614;53.198;6.570;2023-03-18T09:27:58;101035.19;;;10.96;100.00
20909;BME280;10614;53.198;6.570;2023-03-18T09:30:00;101033.28;;;11.00;100.00
20909;BME280;10614;53.198;6.570;2023-03-18T09:32:04;101047.19;;;11.04;100.00
20909;BME280;10614;53.198;6.570;2023-03-18T09:34:05;101033.91;;;11.07;100.00
20909;BME280;10614;53.198;6.570;2023-03-18T09:36:07;101027.72;;;11.08;100.00
20909;BME280;10614;53.198;6.570;2023-03-18T09:38:10;101034.69;;;11.09;100.00
20909;BME280;10614;53.198;6.570;2023-03-18T09:40:15;101039.84;;;11.12;100.00
20909;BME280;10614;53.198;6.570;2023-03-18T09:42:23;101045.00;;;11.15;100.00
20909;BME280;10614;53.198;6.570;2023-03-18T09:44:30;101039.59;;;11.18;100.00
20909;BME280;10614;53.198;6.570;2023-03-18T09:46:34;101045.56;;;11.23;100.00
20909;BME280;10614;53.198;6.570;2023-03-18T09:51:01;101061.09;;;11.31;100.00
20909;BME280;10614;53.198;6.570;2023-03-18T09:53:15;101059.16;;;11.34;100.00
20909;BME280;10614;53.198;6.570;2023-03-18T09:55:20;101059.03;;;11.37;100.00
20909;BME280;10614;53.198;6.570;2023-03-18T09:57:25;101058.06;;;11.40;100.00
20909;BME280;10614;53.198;6.570;2023-03-18T09:59:28;101058.75;;;11.45;100.00
20909;BME280;10614;53.198;6.570;2023-03-18T10:01:31;101060.28;;;11.51;100.00
20909;BME280;10614;53.198;6.570;2023-03-18T10:03:35;101065.22;;;11.58;100.00
20909;BME280;10614;53.198;6.570;2023-03-18T10:05:46;101064.22;;;11.61;100.00
20909;BME280;10614;53.198;6.570;2023-03-18T10:07:51;101059.75;;;11.63;100.00
20909;BME280;10614;53.198;6.570;2023-03-18T10:09:58;101063.16;;;11.67;100.00
20909;BME280;10614;53.198;6.570;2023-03-18T10:12:04;101048.97;;;11.69;100.00
20909;BME280;10614;53.198;6.570;2023-03-18T10:14:13;101066.44;;;11.72;100.00
20909;BME280;10614;53.198;6.570;2023-03-18T10:16:19;101075.09;;;11.75;100.00
20909;BME280;10614;53.198;6.570;2023-03-18T10:18:23;101066.91;;;11.81;100.00
20909;BME280;10614;53.198;6.570;2023-03-18T10:20:27;101075.50;;;11.87;100.00
20909;BME280;10614;53.198;6.570;2023-03-18T10:22:40;101075.41;;;11.90;100.00
20909;BME280;10614;53.198;6.570;2023-03-18T10:24:51;101068.09;;;11.96;100.00
20909;BME280;10614;53.198;6.570;2023-03-18T10:27:01;101071.31;;;12.03;100.00
20909;BME280;10614;53.198;6.570;2023-03-18T10:29:12;101070.13;;;12.10;100.00
20909;BME280;10614;53.198;6.570;2023-03-18T10:31:23;101085.72;;;12.16;100.00
20909;BME280;10614;53.198;6.570;2023-03-18T10:33:31;101076.75;;;12.20;100.00
20909;BME280;10614;53.198;6.570;2023-03-18T10:35:41;101074.81;;;12.24;100.00
20909;BME280;10614;53.198;6.570;2023-03-18T10:37:48;101079.09;;;12.27;100.00
20909;BME280;10614;53.198;6.570;2023-03-18T10:39:53;101080.00;;;12.27;100.00
20909;BME280;10614;53.198;6.570;2023-03-18T10:41:54;101079.91;;;12.29;100.00